Time;durP1;ratioP1;P1;durP2;ratioP2;P2;SDS_P1;SDS_P2;PMS_P1;PMS_P2;Temp;Humidity;BMP_temperature;BMP_pressure;BME280_temperature;BME280_humidity;BME280_pressure;Samples;Min_cycle;Max_cycle;Signal;HPM_P1;HPM_P2
2021/12/21 00:01:57;;;;;;;;;31.25;24.75;;;;;;;;5022621;28;45335;-68
2021/12/21 00:04:22;;;;;;;;;24.25;20.50;;;;;;;;5006254;28;45348;-68
2021/12/21 00:06:48;;;;;;;;;24.00;21.50;;;;;;;;5004572;28;48533;-67
2021/12/21 00:09:13;;;;;;;;;29.00;24.00;;;;;;;;5023575;28;45395;-68
2021/12/21 00:11:38;;;;;;;;;32.25;21.50;;;;;;;;5002705;28;45367;-68
2021/12/21 00:14:16;;;;;;;;;26.50;20.25;;;;;;;;5023706;28;45515;-67
2021/12/21 00:16:50;;;;;;;;;21.00;17.00;;;;;;;;5020740;28;48088;-68
2021/12/21 00:21:51;;;;;;;;;29.50;22.50;;;;;;;;5021304;28;45336;-68
2021/12/21 00:24:21;;;;;;;;;24.50;22.00;;;;;;;;5022358;28;45356;-68
2021/12/21 00:26:46;;;;;;;;;24.50;19.25;;;;;;;;5020550;28;47992;-68
2021/12/21 00:29:12;;;;;;;;;26.00;21.50;;;;;;;;5007829;28;45304;-68
2021/12/21 00:31:37;;;;;;;;;20.75;16.75;;;;;;;;5022150;28;45311;-68
2021/12/21 00:34:04;;;;;;;;;28.25;22.00;;;;;;;;5002688;28;45428;-68
2021/12/21 00:36:30;;;;;;;;;28.75;24.75;;;;;;;;5021146;28;46613;-67
2021/12/21 00:38:56;;;;;;;;;24.75;24.75;;;;;;;;5023084;28;45390;-68
2021/12/21 00:41:22;;;;;;;;;33.33;22.67;;;;;;;;5022680;28;45307;-68
2021/12/21 00:43:47;;;;;;;;;23.25;19.00;;;;;;;;5013068;28;45213;-68
2021/12/21 00:46:13;;;;;;;;;20.33;16.33;;;;;;;;5019559;28;47530;-67
2021/12/21 00:48:47;;;;;;;;;20.50;20.50;;;;;;;;5001913;28;45276;-68
2021/12/21 00:51:13;;;;;;;;;25.25;20.00;;;;;;;;5020725;28;45452;-68
2021/12/21 00:53:39;;;;;;;;;22.25;16.25;;;;;;;;5002276;28;45336;-68
2021/12/21 00:56:05;;;;;;;;;27.25;17.50;;;;;;;;5008618;28;45307;-68
2021/12/21 00:58:30;;;;;;;;;27.00;18.25;;;;;;;;5022869;28;45130;-68
2021/12/21 01:00:56;;;;;;;;;19.75;15.50;;;;;;;;5020636;28;45338;-68
2021/12/21 01:03:22;;;;;;;;;16.25;15.00;;;;;;;;5023019;28;45949;-66
2021/12/21 01:05:55;;;;;;;;;27.00;19.00;;;;;;;;5021681;28;46039;-66
2021/12/21 01:08:24;;;;;;;;;19.25;14.50;;;;;;;;5021492;28;45353;-67
2021/12/21 01:11:04;;;;;;;;;19.75;15.75;;;;;;;;5022440;28;45339;-66
2021/12/21 01:13:50;;;;;;;;;18.75;17.50;;;;;;;;5021399;28;45935;-67
2021/12/21 01:19:09;;;;;;;;;24.50;15.75;;;;;;;;5022505;28;45308;-66
2021/12/21 01:21:30;;;;;;;;;15.00;12.50;;;;;;;;5021434;28;45426;-67
2021/12/21 01:27:42;;;;;;;;;19.33;14.00;;;;;;;;5020588;28;45900;-67
2021/12/21 01:29:51;;;;;;;;;15.00;13.50;;;;;;;;5010906;28;45550;-67
2021/12/21 01:35:12;;;;;;;;;22.00;16.75;;;;;;;;5023082;28;45486;-67
2021/12/21 01:37:58;;;;;;;;;19.50;18.50;;;;;;;;4998053;28;46169;-67
2021/12/21 01:50:50;;;;;;;;;23.00;18.25;;;;;;;;5021579;28;45433;-68
2021/12/21 01:53:15;;;;;;;;;26.25;18.50;;;;;;;;5022516;28;45302;-67
2021/12/21 01:55:42;;;;;;;;;19.75;15.75;;;;;;;;5022306;28;45383;-67
2021/12/21 01:58:08;;;;;;;;;19.25;15.75;;;;;;;;5020757;28;47388;-67
2021/12/21 02:00:33;;;;;;;;;24.50;16.75;;;;;;;;5022093;28;45402;-67
2021/12/21 02:02:58;;;;;;;;;14.50;11.75;;;;;;;;5021500;28;45506;-67
2021/12/21 02:05:23;;;;;;;;;22.25;19.25;;;;;;;;5022961;28;45621;-67
2021/12/21 02:07:49;;;;;;;;;22.75;19.00;;;;;;;;5021419;28;45619;-67
2021/12/21 02:10:14;;;;;;;;;20.25;18.25;;;;;;;;5020942;28;45483;-67
2021/12/21 02:12:39;;;;;;;;;18.50;18.50;;;;;;;;5020243;28;45355;-67
2021/12/21 02:15:05;;;;;;;;;16.75;15.25;;;;;;;;5022411;28;45296;-67
2021/12/21 02:22:49;;;;;;;;;30.00;20.00;;;;;;;;5012138;28;45410;-67
2021/12/21 02:30:48;;;;;;;;;32.25;24.50;;;;;;;;4979819;28;45495;-67
2021/12/21 02:33:14;;;;;;;;;24.50;21.00;;;;;;;;5021868;28;45436;-67
2021/12/21 02:35:40;;;;;;;;;23.00;19.25;;;;;;;;5021878;28;45204;-67
2021/12/21 02:38:05;;;;;;;;;21.00;17.75;;;;;;;;5022951;28;45418;-67
2021/12/21 02:40:31;;;;;;;;;21.75;19.75;;;;;;;;5025651;28;45207;-67
2021/12/21 02:42:56;;;;;;;;;26.50;19.75;;;;;;;;5024446;28;45422;-67
2021/12/21 02:45:21;;;;;;;;;18.50;14.75;;;;;;;;5008075;28;45483;-67
2021/12/21 02:47:47;;;;;;;;;13.00;10.50;;;;;;;;4998845;28;47801;-67
2021/12/21 02:50:12;;;;;;;;;20.75;15.75;;;;;;;;5025610;28;45528;-68
2021/12/21 02:52:37;;;;;;;;;20.50;17.50;;;;;;;;5024608;28;45288;-68
2021/12/21 02:55:03;;;;;;;;;26.75;22.50;;;;;;;;5024634;28;45430;-67
2021/12/21 02:57:28;;;;;;;;;22.50;19.00;;;;;;;;5024093;28;46804;-67
2021/12/21 02:59:54;;;;;;;;;22.00;19.00;;;;;;;;5025158;28;45387;-67
2021/12/21 03:02:19;;;;;;;;;20.25;15.75;;;;;;;;5023995;28;45632;-67
2021/12/21 03:04:45;;;;;;;;;21.00;19.00;;;;;;;;5025803;28;45473;-67
2021/12/21 03:07:42;;;;;;;;;19.25;17.25;;;;;;;;5024012;28;45866;-67
2021/12/21 03:10:01;;;;;;;;;21.75;20.50;;;;;;;;5024830;28;45245;-67
2021/12/21 03:14:52;;;;;;;;;19.75;19.50;;;;;;;;5025443;28;45477;-67
2021/12/21 03:17:18;;;;;;;;;25.00;19.75;;;;;;;;5023731;28;46540;-67
2021/12/21 03:19:43;;;;;;;;;17.75;17.75;;;;;;;;5024838;28;45364;-67
2021/12/21 03:22:09;;;;;;;;;26.75;24.75;;;;;;;;5002683;28;45435;-67
2021/12/21 03:24:35;;;;;;;;;23.75;21.25;;;;;;;;5020570;28;45411;-69
2021/12/21 03:27:00;;;;;;;;;23.50;18.75;;;;;;;;5023934;28;45503;-67
2021/12/21 03:29:26;;;;;;;;;22.25;19.75;;;;;;;;5024672;28;45348;-67
2021/12/21 03:31:51;;;;;;;;;13.00;10.50;;;;;;;;5022894;28;45608;-67
2021/12/21 03:34:17;;;;;;;;;28.75;20.75;;;;;;;;5025133;28;45433;-67
2021/12/21 03:36:42;;;;;;;;;24.25;19.75;;;;;;;;5023783;28;45984;-67
2021/12/21 03:39:16;;;;;;;;;24.75;17.00;;;;;;;;5024836;28;45383;-67
2021/12/21 03:41:45;;;;;;;;;22.75;20.50;;;;;;;;5023826;28;45437;-67
2021/12/21 03:44:11;;;;;;;;;21.25;17.75;;;;;;;;5025097;28;45473;-67
2021/12/21 03:46:44;;;;;;;;;21.00;21.00;;;;;;;;5000397;28;46914;-67
2021/12/21 03:49:37;;;;;;;;;15.75;13.50;;;;;;;;5005796;28;45352;-67
2021/12/21 03:51:55;;;;;;;;;20.50;18.00;;;;;;;;5024074;28;45620;-67
2021/12/21 03:54:20;;;;;;;;;20.25;15.00;;;;;;;;5025070;28;45463;-67
2021/12/21 03:56:49;;;;;;;;;21.50;20.00;;;;;;;;5023640;28;45268;-67
2021/12/21 03:59:14;;;;;;;;;14.50;14.50;;;;;;;;5017991;28;45470;-67
2021/12/21 04:01:39;;;;;;;;;21.50;18.50;;;;;;;;5002142;28;45428;-67
2021/12/21 04:04:05;;;;;;;;;17.25;15.50;;;;;;;;5024548;28;45322;-67
2021/12/21 04:06:30;;;;;;;;;27.50;20.75;;;;;;;;5023142;28;45506;-67
2021/12/21 04:08:55;;;;;;;;;17.33;15.67;;;;;;;;5006314;28;45711;-67
2021/12/21 04:11:20;;;;;;;;;19.25;19.25;;;;;;;;5023473;28;45497;-67
2021/12/21 04:13:46;;;;;;;;;21.00;17.25;;;;;;;;5024567;28;45521;-68
2021/12/21 04:16:11;;;;;;;;;22.50;15.25;;;;;;;;5022913;28;46301;-67
2021/12/21 04:18:38;;;;;;;;;23.75;19.25;;;;;;;;5006051;28;45506;-67
2021/12/21 04:21:05;;;;;;;;;22.50;17.75;;;;;;;;5023149;28;45371;-67
2021/12/21 04:23:30;;;;;;;;;26.50;16.25;;;;;;;;4997147;28;45284;-67
2021/12/21 04:25:56;;;;;;;;;23.50;18.75;;;;;;;;5022967;28;45510;-67
2021/12/21 04:28:21;;;;;;;;;15.00;12.50;;;;;;;;5023695;28;45338;-68
2021/12/21 04:30:47;;;;;;;;;18.00;16.75;;;;;;;;5021557;28;45794;-67
2021/12/21 04:33:12;;;;;;;;;20.50;17.00;;;;;;;;5024081;28;45319;-67
2021/12/21 04:35:37;;;;;;;;;22.00;20.25;;;;;;;;5022067;28;48133;-68
2021/12/21 04:38:20;;;;;;;;;21.50;21.25;;;;;;;;5022325;28;45366;-67
2021/12/21 04:40:48;;;;;;;;;19.00;18.25;;;;;;;;5023040;28;45201;-66
2021/12/21 04:43:13;;;;;;;;;21.25;17.00;;;;;;;;5023907;28;46140;-66
2021/12/21 04:45:38;;;;;;;;;22.25;20.00;;;;;;;;5022862;28;46287;-66
2021/12/21 04:48:04;;;;;;;;;24.50;20.25;;;;;;;;5022748;28;45370;-66
2021/12/21 04:50:30;;;;;;;;;18.00;18.00;;;;;;;;5023600;28;45335;-66
2021/12/21 04:52:55;;;;;;;;;19.00;16.75;;;;;;;;5022954;28;45283;-66
2021/12/21 04:55:20;;;;;;;;;28.50;18.75;;;;;;;;5023330;28;46353;-68
2021/12/21 04:57:45;;;;;;;;;25.25;20.00;;;;;;;;5022460;28;45389;-67
2021/12/21 05:00:12;;;;;;;;;23.25;16.75;;;;;;;;5021865;28;45261;-67
2021/12/21 05:02:38;;;;;;;;;29.25;18.25;;;;;;;;4999084;28;45404;-67
2021/12/21 05:05:03;;;;;;;;;20.00;16.25;;;;;;;;5022894;28;45357;-68
2021/12/21 05:07:31;;;;;;;;;19.50;18.00;;;;;;;;4999722;28;45347;-67
2021/12/21 05:09:59;;;;;;;;;20.50;18.50;;;;;;;;5005255;28;45164;-67
2021/12/21 05:12:25;;;;;;;;;29.50;20.00;;;;;;;;5022576;28;45498;-67
2021/12/21 05:14:50;;;;;;;;;30.00;24.75;;;;;;;;5022547;28;46476;-67
2021/12/21 05:17:15;;;;;;;;;27.25;24.75;;;;;;;;5021865;28;46126;-67
2021/12/21 05:19:40;;;;;;;;;24.75;20.75;;;;;;;;5023029;28;45343;-67
2021/12/21 05:22:06;;;;;;;;;23.75;22.50;;;;;;;;5019087;28;45843;-67
2021/12/21 05:24:31;;;;;;;;;23.25;18.50;;;;;;;;5017074;28;45658;-67
2021/12/21 05:26:56;;;;;;;;;24.75;18.00;;;;;;;;5021904;28;45478;-67
2021/12/21 05:29:22;;;;;;;;;27.50;22.50;;;;;;;;5022854;28;45793;-68
2021/12/21 05:31:47;;;;;;;;;26.50;19.25;;;;;;;;5001478;28;45597;-67
2021/12/21 05:34:12;;;;;;;;;19.00;17.50;;;;;;;;5001874;28;48025;-67
2021/12/21 05:36:38;;;;;;;;;28.50;20.00;;;;;;;;4999923;28;45440;-68
2021/12/21 05:39:05;;;;;;;;;19.75;18.00;;;;;;;;5021143;28;45319;-67
2021/12/21 05:41:51;;;;;;;;;23.25;18.25;;;;;;;;5022249;28;45289;-69
2021/12/21 05:44:17;;;;;;;;;23.00;19.25;;;;;;;;5018803;28;46126;-67
2021/12/21 05:46:42;;;;;;;;;26.25;20.25;;;;;;;;5020930;28;45428;-69
2021/12/21 05:49:07;;;;;;;;;26.00;21.00;;;;;;;;5022043;28;45374;-67
2021/12/21 05:51:33;;;;;;;;;29.25;21.00;;;;;;;;5002527;28;45482;-67
2021/12/21 05:53:58;;;;;;;;;30.25;23.00;;;;;;;;5020482;28;46947;-68
2021/12/21 05:56:23;;;;;;;;;26.75;26.75;;;;;;;;5021134;28;45450;-67
2021/12/21 05:58:49;;;;;;;;;25.50;20.50;;;;;;;;5004183;28;45397;-67
2021/12/21 06:01:14;;;;;;;;;27.50;21.00;;;;;;;;5021503;28;45324;-67
2021/12/21 06:03:39;;;;;;;;;26.75;22.00;;;;;;;;5003644;28;47543;-67
2021/12/21 06:06:10;;;;;;;;;36.00;29.50;;;;;;;;5020598;28;45378;-67
2021/12/21 06:08:36;;;;;;;;;20.25;20.00;;;;;;;;5018673;28;45278;-67
2021/12/21 06:11:05;;;;;;;;;29.75;24.50;;;;;;;;5021292;28;45183;-68
2021/12/21 06:24:40;;;;;;;;;25.50;18.50;;;;;;;;5016129;28;45328;-68
2021/12/21 06:26:36;;;;;;;;;25.00;20.25;;;;;;;;5023974;28;45356;-67
2021/12/21 06:29:01;;;;;;;;;21.75;20.25;;;;;;;;5024881;28;45426;-67
2021/12/21 06:31:26;;;;;;;;;23.75;19.75;;;;;;;;5024441;28;45377;-67
2021/12/21 06:33:51;;;;;;;;;23.00;19.00;;;;;;;;5024897;28;45296;-67
2021/12/21 06:36:17;;;;;;;;;24.00;20.00;;;;;;;;5023757;28;45501;-67
2021/12/21 06:38:42;;;;;;;;;27.00;23.25;;;;;;;;5003746;28;45516;-67
2021/12/21 06:41:07;;;;;;;;;22.50;18.25;;;;;;;;5021877;28;45326;-69
2021/12/21 06:43:33;;;;;;;;;29.50;23.75;;;;;;;;5024679;28;46672;-68
2021/12/21 06:46:11;;;;;;;;;21.50;19.75;;;;;;;;5022964;28;45430;-68
2021/12/21 06:53:53;;;;;;;;;14.50;12.25;;;;;;;;5023864;28;46114;-68
2021/12/21 06:56:18;;;;;;;;;21.50;21.50;;;;;;;;5023728;28;45327;-68
2021/12/21 06:58:44;;;;;;;;;24.50;23.00;;;;;;;;5024564;28;45383;-67
2021/12/21 07:01:10;;;;;;;;;22.50;21.25;;;;;;;;5024025;28;45351;-69
2021/12/21 07:03:35;;;;;;;;;21.50;16.25;;;;;;;;5022899;28;46924;-68
2021/12/21 07:06:01;;;;;;;;;38.00;24.00;;;;;;;;5005518;28;45892;-68
2021/12/21 07:08:29;;;;;;;;;25.00;16.50;;;;;;;;5021498;28;45432;-67
2021/12/21 07:11:08;;;;;;;;;24.75;19.25;;;;;;;;5024023;28;45315;-67
2021/12/21 07:19:01;;;;;;;;;26.75;20.50;;;;;;;;5022723;28;45326;-68
2021/12/21 07:21:26;;;;;;;;;24.75;21.00;;;;;;;;5021133;28;45375;-68
2021/12/21 07:23:52;;;;;;;;;24.00;17.75;;;;;;;;5020193;28;45566;-69
2021/12/21 07:26:17;;;;;;;;;20.00;18.75;;;;;;;;5022920;28;45467;-69
2021/12/21 07:28:43;;;;;;;;;25.75;20.75;;;;;;;;5024289;28;45351;-69
2021/12/21 07:31:08;;;;;;;;;22.00;21.50;;;;;;;;5023246;28;45571;-67
2021/12/21 07:33:34;;;;;;;;;31.00;26.25;;;;;;;;5021630;28;46776;-69
2021/12/21 07:35:59;;;;;;;;;38.00;27.25;;;;;;;;5022189;28;45419;-69
2021/12/21 07:38:26;;;;;;;;;26.50;24.50;;;;;;;;5023028;28;45257;-69
2021/12/21 07:40:51;;;;;;;;;26.50;26.25;;;;;;;;5022204;28;45399;-68
2021/12/21 07:43:16;;;;;;;;;27.50;23.75;;;;;;;;5017140;28;46367;-68
2021/12/21 07:45:42;;;;;;;;;29.50;24.00;;;;;;;;5022352;28;45275;-69
2021/12/21 07:48:07;;;;;;;;;36.00;27.00;;;;;;;;5003785;28;45411;-69
2021/12/21 07:50:33;;;;;;;;;26.25;20.00;;;;;;;;5022526;28;45502;-69
2021/12/21 07:53:00;;;;;;;;;25.75;20.50;;;;;;;;5022338;28;45687;-69
2021/12/21 07:55:25;;;;;;;;;26.50;20.00;;;;;;;;5021941;28;45805;-69
2021/12/21 07:57:50;;;;;;;;;26.75;24.75;;;;;;;;5022350;28;45320;-68
2021/12/21 08:00:16;;;;;;;;;28.25;26.75;;;;;;;;5023573;28;45261;-68
2021/12/21 08:02:41;;;;;;;;;20.75;20.75;;;;;;;;5022383;28;47075;-68
2021/12/21 08:05:08;;;;;;;;;27.75;25.25;;;;;;;;5021442;28;45854;-68
2021/12/21 08:07:37;;;;;;;;;23.25;19.00;;;;;;;;5022459;28;45409;-68
2021/12/21 08:10:17;;;;;;;;;31.50;26.00;;;;;;;;5023488;28;45407;-68
2021/12/21 08:12:43;;;;;;;;;29.25;26.75;;;;;;;;5003982;28;47013;-68
2021/12/21 08:15:09;;;;;;;;;23.50;21.50;;;;;;;;5022400;28;45236;-68
2021/12/21 08:17:34;;;;;;;;;24.25;21.25;;;;;;;;5022096;28;45252;-68
2021/12/21 08:19:59;;;;;;;;;35.00;28.50;;;;;;;;5023279;28;45228;-68
2021/12/21 08:22:24;;;;;;;;;36.75;31.25;;;;;;;;5017616;28;45354;-68
2021/12/21 08:24:49;;;;;;;;;28.25;27.25;;;;;;;;5022935;28;45234;-68
2021/12/21 08:27:15;;;;;;;;;29.50;23.50;;;;;;;;5022509;28;45439;-69
2021/12/21 08:29:40;;;;;;;;;27.75;27.75;;;;;;;;5023392;28;45130;-68
2021/12/21 08:32:06;;;;;;;;;14.25;11.50;;;;;;;;5004354;28;45866;-68
2021/12/21 08:34:31;;;;;;;;;22.25;21.00;;;;;;;;5022668;28;45327;-68
2021/12/21 08:36:57;;;;;;;;;30.00;24.25;;;;;;;;5020523;28;45404;-69
2021/12/21 08:39:24;;;;;;;;;24.50;21.75;;;;;;;;5004641;28;45583;-69
2021/12/21 08:41:55;;;;;;;;;19.00;19.00;;;;;;;;4998601;28;47208;-68
2021/12/21 08:44:21;;;;;;;;;33.25;27.00;;;;;;;;5022868;28;45357;-69
2021/12/21 08:46:47;;;;;;;;;22.75;21.25;;;;;;;;5021981;28;45416;-69
2021/12/21 08:49:12;;;;;;;;;20.50;17.00;;;;;;;;5023252;28;45684;-69
2021/12/21 08:51:37;;;;;;;;;26.75;22.00;;;;;;;;5002661;28;47005;-68
2021/12/21 08:54:03;;;;;;;;;25.75;21.75;;;;;;;;5022401;28;45666;-69
2021/12/21 08:56:28;;;;;;;;;29.00;22.00;;;;;;;;5022089;28;45379;-68
2021/12/21 08:58:53;;;;;;;;;28.00;24.50;;;;;;;;5023330;28;45361;-69
2021/12/21 09:01:18;;;;;;;;;28.75;24.75;;;;;;;;5021524;28;46132;-68
2021/12/21 09:03:44;;;;;;;;;33.25;27.00;;;;;;;;5022829;28;45318;-69
2021/12/21 09:06:09;;;;;;;;;39.25;33.00;;;;;;;;5022035;28;45314;-69
2021/12/21 09:08:34;;;;;;;;;35.50;29.50;;;;;;;;5021560;28;45278;-69
2021/12/21 09:11:04;;;;;;;;;34.00;26.75;;;;;;;;5021773;28;45414;-68
2021/12/21 09:13:30;;;;;;;;;30.75;25.75;;;;;;;;5004000;28;45241;-69
2021/12/21 09:15:55;;;;;;;;;28.00;26.25;;;;;;;;5021563;28;45270;-69
2021/12/21 09:18:20;;;;;;;;;26.50;23.75;;;;;;;;5022486;28;45316;-70
2021/12/21 09:20:45;;;;;;;;;27.50;25.50;;;;;;;;5003844;28;47119;-68
2021/12/21 09:23:12;;;;;;;;;29.00;22.50;;;;;;;;4998638;28;45329;-69
2021/12/21 09:25:37;;;;;;;;;22.00;20.75;;;;;;;;5022597;28;45329;-72
2021/12/21 09:28:02;;;;;;;;;31.50;25.25;;;;;;;;5006233;28;48481;-69
2021/12/21 09:30:28;;;;;;;;;25.25;22.50;;;;;;;;5022044;28;45311;-69
2021/12/21 09:32:54;;;;;;;;;38.00;27.75;;;;;;;;4998593;28;45346;-69
2021/12/21 09:35:19;;;;;;;;;32.00;25.25;;;;;;;;5021017;28;45308;-70
2021/12/21 09:37:45;;;;;;;;;25.25;22.00;;;;;;;;5003273;28;46440;-69
2021/12/21 09:40:12;;;;;;;;;24.75;24.75;;;;;;;;5003995;28;47434;-69
2021/12/21 09:42:37;;;;;;;;;27.50;24.75;;;;;;;;5020998;28;45452;-70
2021/12/21 09:45:03;;;;;;;;;29.75;23.75;;;;;;;;5022422;28;45494;-69
2021/12/21 09:47:29;;;;;;;;;29.50;25.25;;;;;;;;5020488;28;45300;-69
2021/12/21 09:49:54;;;;;;;;;27.50;21.75;;;;;;;;5004546;28;47073;-69
2021/12/21 09:52:24;;;;;;;;;21.00;19.00;;;;;;;;5021029;28;45338;-67
2021/12/21 09:54:50;;;;;;;;;36.50;29.75;;;;;;;;5004432;28;45464;-68
2021/12/21 09:57:17;;;;;;;;;29.00;21.75;;;;;;;;5003519;28;45396;-68
2021/12/21 09:59:46;;;;;;;;;25.50;20.50;;;;;;;;5003407;28;47165;-68
2021/12/21 10:02:11;;;;;;;;;32.75;24.75;;;;;;;;5018587;28;45344;-68
2021/12/21 10:04:51;;;;;;;;;21.50;20.25;;;;;;;;5020223;28;45393;-68
2021/12/21 10:07:18;;;;;;;;;34.75;29.00;;;;;;;;5018848;28;45519;-69
2021/12/21 10:09:43;;;;;;;;;32.00;22.75;;;;;;;;5019563;28;45287;-69
2021/12/21 10:12:13;;;;;;;;;26.75;22.50;;;;;;;;5020965;28;45352;-69
2021/12/21 10:14:38;;;;;;;;;26.00;21.75;;;;;;;;5021917;28;45458;-69
2021/12/21 10:17:05;;;;;;;;;28.00;23.75;;;;;;;;5021208;28;45449;-70
2021/12/21 10:19:31;;;;;;;;;36.50;26.50;;;;;;;;5021545;28;45326;-69
2021/12/21 10:22:06;;;;;;;;;33.50;26.75;;;;;;;;5016248;28;45438;-70
2021/12/21 10:24:31;;;;;;;;;34.75;29.50;;;;;;;;5021660;28;45308;-69
2021/12/21 10:27:07;;;;;;;;;36.00;30.00;;;;;;;;5021063;28;45328;-69
2021/12/21 10:29:40;;;;;;;;;24.25;24.25;;;;;;;;5010903;28;48566;-69
2021/12/21 10:32:05;;;;;;;;;29.25;20.00;;;;;;;;5020600;28;45494;-69
2021/12/21 10:34:30;;;;;;;;;24.75;23.00;;;;;;;;5021804;28;45550;-69
2021/12/21 10:36:57;;;;;;;;;23.00;22.50;;;;;;;;5021517;28;45508;-69
2021/12/21 10:39:23;;;;;;;;;28.25;23.75;;;;;;;;5021619;28;45641;-69
2021/12/21 10:41:49;;;;;;;;;31.25;26.75;;;;;;;;5020836;28;45293;-69
2021/12/21 10:44:16;;;;;;;;;27.25;22.50;;;;;;;;5021805;28;45431;-69
2021/12/21 10:46:47;;;;;;;;;25.25;23.25;;;;;;;;5021066;28;45401;-69
2021/12/21 10:49:14;;;;;;;;;27.25;23.75;;;;;;;;5021334;28;45393;-69
2021/12/21 10:51:56;;;;;;;;;24.75;23.50;;;;;;;;5001342;28;45434;-69
2021/12/21 10:54:37;;;;;;;;;25.25;20.50;;;;;;;;5020534;28;45451;-69
2021/12/21 10:57:04;;;;;;;;;21.25;18.50;;;;;;;;5019579;28;45633;-69
2021/12/21 10:59:31;;;;;;;;;30.00;25.50;;;;;;;;5021593;28;47111;-69
2021/12/21 11:02:05;;;;;;;;;25.50;24.25;;;;;;;;5023161;28;45506;-69
2021/12/21 11:04:34;;;;;;;;;32.25;24.50;;;;;;;;5024969;28;45394;-69
2021/12/21 11:07:08;;;;;;;;;28.50;22.00;;;;;;;;5006433;28;45369;-70
2021/12/21 11:09:34;;;;;;;;;31.75;25.00;;;;;;;;5024727;28;46098;-69
2021/12/21 11:12:00;;;;;;;;;14.25;11.50;;;;;;;;5023745;28;45647;-68
2021/12/21 11:14:29;;;;;;;;;30.75;23.50;;;;;;;;5023342;28;45375;-69
2021/12/21 11:16:55;;;;;;;;;37.75;27.75;;;;;;;;5023623;28;45544;-68
2021/12/21 11:19:21;;;;;;;;;27.00;19.25;;;;;;;;5013330;28;47327;-68
2021/12/21 11:21:50;;;;;;;;;33.75;23.50;;;;;;;;5016068;28;45430;-67
2021/12/21 11:24:17;;;;;;;;;36.75;29.25;;;;;;;;5025815;28;45402;-70
2021/12/21 11:26:43;;;;;;;;;25.00;20.25;;;;;;;;5026219;28;45498;-69
2021/12/21 11:29:10;;;;;;;;;34.00;29.25;;;;;;;;5026234;28;48518;-69
2021/12/21 11:31:39;;;;;;;;;28.00;22.50;;;;;;;;5022116;28;45424;-69
2021/12/21 11:34:07;;;;;;;;;24.75;23.25;;;;;;;;5023469;28;45325;-70
2021/12/21 11:39:17;;;;;;;;;22.75;22.50;;;;;;;;5019978;28;45887;-69
2021/12/21 11:41:43;;;;;;;;;32.75;25.00;;;;;;;;4999885;28;45345;-70
2021/12/21 11:44:40;;;;;;;;;31.00;27.00;;;;;;;;5016953;28;45566;-71
2021/12/21 11:47:07;;;;;;;;;29.50;25.25;;;;;;;;4972553;28;45800;-70
2021/12/21 11:49:34;;;;;;;;;27.50;19.50;;;;;;;;5005874;28;47007;-68
2021/12/21 11:52:10;;;;;;;;;30.50;26.75;;;;;;;;5022541;28;45822;-68
2021/12/21 11:55:02;;;;;;;;;36.25;27.50;;;;;;;;5023646;28;45268;-68
2021/12/21 11:57:34;;;;;;;;;30.50;27.50;;;;;;;;5019624;28;45581;-69
2021/12/21 12:00:12;;;;;;;;;34.25;28.00;;;;;;;;5023413;28;46040;-68
2021/12/21 12:02:38;;;;;;;;;30.50;28.50;;;;;;;;5022902;28;45458;-69
2021/12/21 12:05:13;;;;;;;;;29.25;23.00;;;;;;;;5023060;28;45433;-67
2021/12/21 12:07:39;;;;;;;;;27.00;23.00;;;;;;;;5024117;28;45427;-67
2021/12/21 12:10:09;;;;;;;;;30.75;29.25;;;;;;;;5024626;28;46070;-67
2021/12/21 12:12:35;;;;;;;;;25.50;25.50;;;;;;;;5020562;28;45431;-69
2021/12/21 12:15:01;;;;;;;;;31.00;24.25;;;;;;;;5023728;28;45292;-68
2021/12/21 12:17:28;;;;;;;;;29.50;22.75;;;;;;;;5023030;28;45298;-69
2021/12/21 12:20:02;;;;;;;;;27.00;26.50;;;;;;;;5023142;28;45316;-68
2021/12/21 12:22:38;;;;;;;;;31.75;27.50;;;;;;;;5019598;28;45375;-69
2021/12/21 12:25:04;;;;;;;;;36.50;26.50;;;;;;;;5022874;28;45468;-68
2021/12/21 12:27:30;;;;;;;;;24.00;24.00;;;;;;;;4999135;28;45449;-68
2021/12/21 12:29:55;;;;;;;;;34.00;28.50;;;;;;;;5022542;28;46064;-69
2021/12/21 12:32:35;;;;;;;;;47.50;37.75;;;;;;;;5022255;28;45332;-68
2021/12/21 12:35:03;;;;;;;;;36.50;26.75;;;;;;;;5021186;28;45307;-68
2021/12/21 12:37:28;;;;;;;;;32.00;28.00;;;;;;;;5022081;28;45334;-69
2021/12/21 12:39:55;;;;;;;;;34.00;27.25;;;;;;;;5022684;28;45250;-69
2021/12/21 12:42:29;;;;;;;;;23.75;22.00;;;;;;;;5022205;28;45405;-68
2021/12/21 12:45:06;;;;;;;;;31.75;27.50;;;;;;;;5022620;28;45353;-68
2021/12/21 12:47:31;;;;;;;;;32.75;28.25;;;;;;;;5022210;28;45336;-68
2021/12/21 12:49:57;;;;;;;;;33.50;24.00;;;;;;;;5022831;28;45335;-67
2021/12/21 12:52:30;;;;;;;;;32.50;29.75;;;;;;;;5021748;28;45432;-70
2021/12/21 12:55:00;;;;;;;;;37.00;28.25;;;;;;;;5022725;28;45422;-68
2021/12/21 12:57:26;;;;;;;;;36.00;28.50;;;;;;;;5021999;28;45396;-68
2021/12/21 12:59:53;;;;;;;;;27.00;25.25;;;;;;;;5021058;28;46805;-68
2021/12/21 13:02:18;;;;;;;;;37.00;31.75;;;;;;;;5021597;28;46099;-68
2021/12/21 13:04:43;;;;;;;;;35.25;30.75;;;;;;;;5022840;28;45544;-68
2021/12/21 13:07:08;;;;;;;;;29.25;29.00;;;;;;;;5022300;28;45506;-68
2021/12/21 13:09:34;;;;;;;;;32.25;25.50;;;;;;;;5021253;28;48316;-68
2021/12/21 13:12:00;;;;;;;;;42.50;37.50;;;;;;;;5001223;28;45568;-68
2021/12/21 13:14:25;;;;;;;;;33.50;29.00;;;;;;;;5022675;28;45328;-68
2021/12/21 13:16:51;;;;;;;;;28.25;22.75;;;;;;;;5021973;28;45333;-68
2021/12/21 13:19:16;;;;;;;;;38.50;33.50;;;;;;;;5004469;28;48024;-68
2021/12/21 13:21:57;;;;;;;;;34.00;28.00;;;;;;;;5017282;28;45462;-68
2021/12/21 13:24:24;;;;;;;;;38.25;30.50;;;;;;;;5015406;28;45727;-68
2021/12/21 13:26:54;;;;;;;;;43.00;33.50;;;;;;;;5020364;28;45494;-68
2021/12/21 13:29:21;;;;;;;;;42.75;30.50;;;;;;;;5019470;28;47269;-68
2021/12/21 13:31:48;;;;;;;;;45.00;34.25;;;;;;;;4999498;28;45690;-68
2021/12/21 13:34:13;;;;;;;;;39.75;34.50;;;;;;;;5004375;28;45478;-68
2021/12/21 13:36:50;;;;;;;;;32.50;27.75;;;;;;;;5021000;28;45449;-68
2021/12/21 13:39:18;;;;;;;;;41.50;34.00;;;;;;;;5022713;28;45386;-68
2021/12/21 13:41:44;;;;;;;;;25.50;21.00;;;;;;;;5021658;28;45296;-68
2021/12/21 13:44:10;;;;;;;;;23.25;16.50;;;;;;;;5022534;28;45327;-68
2021/12/21 13:46:35;;;;;;;;;37.50;33.25;;;;;;;;5021589;28;45688;-68
2021/12/21 13:49:00;;;;;;;;;28.50;26.25;;;;;;;;5022689;28;46547;-67
2021/12/21 13:51:25;;;;;;;;;37.75;32.50;;;;;;;;5002395;28;45412;-68
2021/12/21 13:53:52;;;;;;;;;53.00;39.00;;;;;;;;5022472;28;45277;-68
2021/12/21 13:56:20;;;;;;;;;35.75;27.75;;;;;;;;5021840;28;46504;-68
2021/12/21 13:58:45;;;;;;;;;41.00;30.50;;;;;;;;5016356;28;48611;-68
2021/12/21 14:01:19;;;;;;;;;40.00;30.00;;;;;;;;5019684;28;45308;-68
2021/12/21 14:03:51;;;;;;;;;33.50;27.50;;;;;;;;5020096;28;45453;-68
2021/12/21 14:06:21;;;;;;;;;35.75;31.75;;;;;;;;5020134;28;45581;-68
2021/12/21 14:08:49;;;;;;;;;44.75;39.50;;;;;;;;5021028;28;46000;-68
2021/12/21 14:11:15;;;;;;;;;39.00;30.00;;;;;;;;5020264;28;45561;-67
2021/12/21 14:13:42;;;;;;;;;40.25;28.50;;;;;;;;5021742;28;45333;-69
2021/12/21 14:16:09;;;;;;;;;35.25;32.50;;;;;;;;5021305;28;45395;-69
2021/12/21 14:18:38;;;;;;;;;33.00;32.00;;;;;;;;5021174;28;45357;-69
2021/12/21 14:21:05;;;;;;;;;31.50;29.00;;;;;;;;5021227;28;45165;-69
2021/12/21 14:23:31;;;;;;;;;26.75;24.25;;;;;;;;5016650;28;45875;-71
2021/12/21 14:26:09;;;;;;;;;35.00;29.75;;;;;;;;5019019;28;45375;-69
2021/12/21 14:28:53;;;;;;;;;35.50;34.25;;;;;;;;5018636;28;45268;-68
2021/12/21 14:31:22;;;;;;;;;41.00;31.25;;;;;;;;5019893;28;45599;-68
2021/12/21 14:33:49;;;;;;;;;40.25;32.50;;;;;;;;5016780;28;45483;-67
2021/12/21 14:36:15;;;;;;;;;42.75;33.50;;;;;;;;5024575;28;45285;-69
2021/12/21 14:38:50;;;;;;;;;35.50;28.00;;;;;;;;5024676;28;45436;-68
2021/12/21 14:41:18;;;;;;;;;33.00;27.25;;;;;;;;5024154;28;45323;-69
2021/12/21 14:43:43;;;;;;;;;27.75;22.75;;;;;;;;5023836;28;45348;-70
2021/12/21 14:46:17;;;;;;;;;32.75;27.50;;;;;;;;5024047;28;45232;-69
2021/12/21 14:48:47;;;;;;;;;32.75;27.75;;;;;;;;5024712;28;45287;-69
2021/12/21 14:51:13;;;;;;;;;38.75;31.50;;;;;;;;5024125;28;45390;-69
2021/12/21 14:53:48;;;;;;;;;35.00;27.50;;;;;;;;5024414;28;45537;-69
2021/12/21 14:56:25;;;;;;;;;41.00;27.75;;;;;;;;5006682;28;45482;-69
2021/12/21 14:59:16;;;;;;;;;25.25;23.75;;;;;;;;5021381;28;46241;-69
2021/12/21 15:01:43;;;;;;;;;30.50;22.00;;;;;;;;5020288;28;45513;-69
2021/12/21 15:04:16;;;;;;;;;31.50;27.25;;;;;;;;5024771;28;45435;-68
2021/12/21 15:06:41;;;;;;;;;35.50;30.00;;;;;;;;5006273;28;45288;-69
2021/12/21 15:09:07;;;;;;;;;28.25;27.00;;;;;;;;5024609;28;46122;-68
2021/12/21 15:11:32;;;;;;;;;21.25;17.25;;;;;;;;5004692;28;45331;-68
2021/12/21 15:13:57;;;;;;;;;39.00;28.25;;;;;;;;5006040;28;45277;-68
2021/12/21 15:16:22;;;;;;;;;32.25;26.00;;;;;;;;5023862;28;45208;-68
2021/12/21 15:18:48;;;;;;;;;24.25;22.50;;;;;;;;5022821;28;48249;-68